createdAt,value
2023-02-14T00:04:01.655Z,95553.66
2023-02-14T00:09:03.835Z,95554.69
2023-02-14T00:14:24.557Z,95556.59
2023-02-14T00:19:26.802Z,95555.84
2023-02-14T00:24:29.084Z,95563.50
2023-02-14T00:29:32.211Z,95557.66
2023-02-14T00:34:36.644Z,95565.63
2023-02-14T00:39:39.058Z,95547.34
2023-02-14T00:44:41.282Z,95563.22
2023-02-14T00:49:43.172Z,95555.06
2023-02-14T00:54:45.132Z,95552.41
2023-02-14T00:59:49.323Z,95541.34
2023-02-14T01:04:51.625Z,95541.63
2023-02-14T01:09:54.504Z,95541.06
2023-02-14T01:14:56.968Z,95543.72
2023-02-14T01:19:59.054Z,95530.78
2023-02-14T01:25:01.072Z,95526.34
2023-02-14T01:30:06.072Z,95532.38
2023-02-14T01:35:09.211Z,95526.34
2023-02-14T01:40:12.374Z,95516.56
2023-02-14T01:45:20.955Z,95530.09
2023-02-14T01:50:24.409Z,95538.25
2023-02-14T01:55:29.981Z,95543.59
2023-02-14T02:00:50.375Z,95540.72
2023-02-14T02:05:56.439Z,95532.81
2023-02-14T02:11:00.142Z,95532.81
2023-02-14T02:16:20.910Z,95510.31
2023-02-14T02:21:58.082Z,95523.06
2023-02-14T02:27:17.042Z,95536.59
2023-02-14T02:32:34.092Z,95539.25
2023-02-14T02:37:55.282Z,95541.66
2023-02-14T02:43:18.589Z,95549.59
2023-02-14T02:48:22.435Z,95541.66
2023-02-14T02:53:29.673Z,95528.44
2023-02-14T02:59:00.152Z,95545.16
2023-02-14T03:04:25.359Z,95532.72
2023-02-14T03:09:27.287Z,95525.31
2023-02-14T03:14:45.633Z,95536.97
2023-02-14T03:20:15.308Z,95516.06
2023-02-14T03:25:43.520Z,95531.41
2023-02-14T03:30:59.908Z,95516.28
2023-02-14T03:36:03.874Z,95519.22
2023-02-14T03:41:09.692Z,95522.63
2023-02-14T03:46:19.965Z,95519.69
2023-02-14T03:51:24.098Z,95519.16
2023-02-14T03:56:42.563Z,95512.78
2023-02-14T04:01:44.513Z,95509.63
2023-02-14T04:06:47.012Z,95511.47
2023-02-14T04:11:50.707Z,95508.03
2023-02-14T04:17:11.588Z,95501.38
2023-02-14T04:22:13.676Z,95515.16
2023-02-14T04:27:15.669Z,95497.91
2023-02-14T04:32:20.314Z,95495.53
2023-02-14T04:37:22.379Z,95506.41
2023-02-14T04:42:24.338Z,95510.13
2023-02-14T04:47:26.438Z,95494.22
2023-02-14T04:52:30.245Z,95499.56
2023-02-14T04:57:32.192Z,95492.94
2023-02-14T05:02:34.095Z,95485.03
2023-02-14T05:07:36.296Z,95485.78
2023-02-14T05:12:38.309Z,95482.59
2023-02-14T05:17:40.200Z,95493.72
2023-02-14T05:22:42.268Z,95509.63
2023-02-14T05:27:44.176Z,95495.59
2023-02-14T05:32:46.171Z,95502.16
2023-02-14T05:37:48.387Z,95520.72
2023-02-14T05:42:52.447Z,95529.75
2023-02-14T05:47:54.552Z,95527.38
2023-02-14T05:52:56.803Z,95516.53
2023-02-14T05:57:58.872Z,95495.94
2023-02-14T06:03:01.248Z,95498.84
2023-02-14T06:08:03.329Z,95489.84
2023-02-14T06:13:08.989Z,95502.06
2023-02-14T06:18:11.320Z,95488.03
2023-02-14T06:23:13.421Z,95489.97
2023-02-14T06:28:15.557Z,95497.94
2023-02-14T06:33:17.480Z,95486.03
2023-02-14T06:38:19.454Z,95480.44
2023-02-14T06:43:21.514Z,95491.88
2023-02-14T06:48:23.649Z,95512.28
2023-02-14T06:53:25.619Z,95525.00
2023-02-14T06:58:27.651Z,95517.78
2023-02-14T07:03:29.841Z,95526.56
2023-02-14T07:08:33.271Z,95523.13
2023-02-14T07:13:35.776Z,95522.59
2023-02-14T07:18:38.006Z,95533.94
2023-02-14T07:23:40.033Z,95517.53
2023-02-14T07:28:44.895Z,95527.88
2023-02-14T07:33:47.180Z,95535.28
2023-02-14T07:38:49.192Z,95537.94
2023-02-14T07:43:51.072Z,95539.22
2023-02-14T07:48:53.173Z,95544.03
2023-02-14T07:53:55.246Z,95551.19
2023-02-14T07:58:57.111Z,95551.19
2023-02-14T08:03:59.391Z,95554.63
2023-02-14T08:09:01.531Z,95548.03
2023-02-14T08:14:04.749Z,95543.81
2023-02-14T08:19:08.019Z,95538.22
2023-02-14T08:24:10.697Z,95547.53
2023-02-14T08:29:12.595Z,95538.78
2023-02-14T08:34:15.697Z,95513.13
2023-02-14T08:39:17.858Z,95524.31
2023-02-14T08:44:20.281Z,95541.81
2023-02-14T08:49:22.347Z,95528.31
2023-02-14T08:54:24.291Z,95537.59
2023-02-14T08:59:26.334Z,95534.16
2023-02-14T09:04:28.358Z,95532.31
2023-02-14T09:09:30.544Z,95538.94
2023-02-14T09:14:39.805Z,95534.44
2023-02-14T09:19:42.214Z,95528.91
2023-02-14T09:24:44.595Z,95535.53
2023-02-14T09:29:46.772Z,95530.25
2023-02-14T09:35:07.387Z,95534.19
2023-02-14T09:40:10.102Z,95531.81
2023-02-14T09:45:15.470Z,95524.13
2023-02-14T09:50:23.776Z,95522.81
2023-02-14T09:55:35.585Z,95520.44
2023-02-14T10:00:48.666Z,95515.84
2023-02-14T10:06:22.474Z,95506.31
2023-02-14T10:11:25.030Z,95519.44
2023-02-14T10:16:39.302Z,95514.09
2023-02-14T10:21:47.107Z,95504.84
2023-02-14T10:26:50.833Z,95516.22
2023-02-14T10:32:02.244Z,95512.50
2023-02-14T10:37:35.476Z,95509.28
2023-02-14T10:43:01.535Z,95507.13
2023-02-14T10:48:16.788Z,95499.69
2023-02-14T10:54:00.557Z,95496.28
2023-02-14T10:59:22.059Z,95490.09
2023-02-14T11:04:25.458Z,95500.88
2023-02-14T11:09:27.418Z,95495.94
2023-02-14T11:14:32.655Z,95480.03
2023-02-14T11:19:37.302Z,95478.34
2023-02-14T11:24:42.418Z,95489.25
2023-02-14T11:29:52.502Z,95472.31
2023-02-14T11:35:14.108Z,95462.16
2023-02-14T11:40:31.481Z,95454.06
2023-02-14T11:45:38.580Z,95451.09
2023-02-14T11:50:42.217Z,95447.53
2023-02-14T11:55:44.583Z,95418.72
2023-02-14T12:00:53.212Z,95417.28
2023-02-14T12:06:00.616Z,95405.38
2023-02-14T12:11:05.725Z,95396.59
2023-02-14T12:16:24.183Z,95371.47
2023-02-14T12:21:48.959Z,95383.31
2023-02-14T12:27:21.037Z,95368.69
2023-02-14T12:32:28.821Z,95359.66
2023-02-14T12:37:41.145Z,95351.69
2023-02-14T12:43:27.125Z,95331.41
2023-02-14T12:49:01.054Z,95331.41
2023-02-14T12:54:09.129Z,95324.50
2023-02-14T12:59:29.255Z,95312.31
2023-02-14T13:04:54.065Z,95293.88
2023-02-14T13:10:05.227Z,95285.56
2023-02-14T13:15:30.952Z,95281.31
2023-02-14T13:20:53.488Z,95267.47
2023-02-14T13:26:04.902Z,95260.66
2023-02-14T13:31:07.133Z,95249.53
2023-02-14T13:36:12.492Z,95236.94
2023-02-14T13:41:15.821Z,95232.38
2023-02-14T13:46:49.823Z,95222.41
2023-02-14T13:51:57.740Z,95210.94
2023-02-14T13:57:23.579Z,95209.63
2023-02-14T14:02:30.097Z,95205.97
2023-02-14T14:07:33.222Z,95201.28
2023-02-14T14:12:35.278Z,95202.66
2023-02-14T14:17:44.642Z,95179.34
2023-02-14T14:22:48.790Z,95179.19
2023-02-14T14:27:50.760Z,95160.53
2023-02-14T14:32:52.724Z,95153.38
2023-02-14T14:37:56.940Z,95148.84
2023-02-14T14:43:23.638Z,95144.53
2023-02-14T14:48:33.687Z,95147.38
2023-02-14T14:53:42.206Z,95134.53
2023-02-14T14:58:44.459Z,95144.22
2023-02-14T15:03:46.479Z,95126.16
2023-02-14T15:08:49.904Z,95121.81
2023-02-14T15:13:57.596Z,95110.16
2023-02-14T15:19:01.778Z,95106.69
2023-02-14T15:24:04.452Z,95095.63
2023-02-14T15:29:07.672Z,95086.63
2023-02-14T15:34:10.734Z,95086.13
2023-02-14T15:39:14.317Z,95090.78
2023-02-14T15:44:21.180Z,95091.28
2023-02-14T15:49:30.321Z,95094.84
2023-02-14T15:54:38.861Z,95097.31
2023-02-14T15:59:42.276Z,95100.06
2023-02-14T16:04:44.488Z,95102.41
2023-02-14T16:09:46.426Z,95102.63
2023-02-14T16:15:03.228Z,95109.06
2023-02-14T16:20:30.050Z,95119.72
2023-02-14T16:25:32.222Z,95112.50
2023-02-14T16:30:34.163Z,95110.16
2023-02-14T16:35:36.140Z,95116.47
2023-02-14T16:40:38.022Z,95112.22
2023-02-14T16:45:41.252Z,95115.56
2023-02-14T16:50:43.645Z,95118.34
2023-02-14T16:55:45.552Z,95130.38
2023-02-14T17:00:47.646Z,95119.44
2023-02-14T17:05:49.848Z,95137.22
2023-02-14T17:10:52.300Z,95136.81
2023-02-14T17:15:56.193Z,95142.94
2023-02-14T17:20:59.594Z,95143.22
2023-02-14T17:26:06.318Z,95133.53
2023-02-14T17:31:08.569Z,95134.25
2023-02-14T17:36:12.854Z,95151.63
2023-02-14T17:41:22.364Z,95138.78
2023-02-14T17:46:24.509Z,95132.94
2023-02-14T17:51:26.475Z,95142.78
2023-02-14T17:56:28.392Z,95142.94
2023-02-14T18:01:34.629Z,95151.91
2023-02-14T18:06:37.458Z,95151.31
2023-02-14T18:11:40.437Z,95156.00
2023-02-14T18:16:44.896Z,95161.69
2023-02-14T18:21:47.708Z,95160.69
2023-02-14T18:26:49.866Z,95160.47
2023-02-14T18:31:52.124Z,95167.22
2023-02-14T18:36:55.070Z,95161.81
2023-02-14T18:42:00.021Z,95169.28
2023-02-14T18:47:02.809Z,95185.28
2023-02-14T18:52:07.010Z,95183.78
2023-02-14T18:57:09.086Z,95190.47
2023-02-14T19:02:12.104Z,95195.03
2023-02-14T19:07:14.272Z,95193.22
2023-02-14T19:12:16.348Z,95192.72
2023-02-14T19:17:18.324Z,95186.97
2023-02-14T19:22:20.590Z,95187.78
2023-02-14T19:27:24.047Z,95196.63
2023-02-14T19:32:26.596Z,95202.34
2023-02-14T19:37:28.548Z,95194.41
2023-02-14T19:42:30.470Z,95194.72
2023-02-14T19:47:46.314Z,95184.41
2023-02-14T19:52:49.339Z,95199.31
2023-02-14T19:57:51.320Z,95198.03
2023-02-14T20:02:53.397Z,95196.03
2023-02-14T20:07:55.536Z,95199.78
2023-02-14T20:12:57.470Z,95195.91
2023-02-14T20:17:59.468Z,95194.56
2023-02-14T20:23:02.524Z,95200.41
2023-02-14T20:28:05.088Z,95203.63
2023-02-14T20:33:07.264Z,95196.03
2023-02-14T20:38:09.507Z,95215.13
2023-02-14T20:43:11.549Z,95209.75
2023-02-14T20:48:13.571Z,95192.00
2023-02-14T20:53:15.441Z,95203.16
2023-02-14T20:58:17.488Z,95201.06
2023-02-14T21:03:19.748Z,95216.44
2023-02-14T21:08:22.460Z,95216.69
2023-02-14T21:13:24.609Z,95218.59
2023-02-14T21:18:26.578Z,95209.22
2023-02-14T21:23:28.639Z,95209.22
2023-02-14T21:28:30.789Z,95223.91
2023-02-14T21:33:33.500Z,95222.31
2023-02-14T21:38:36.059Z,95207.25
2023-02-14T21:43:40.502Z,95208.22
2023-02-14T21:49:01.939Z,95203.81
2023-02-14T21:54:04.021Z,95211.16
2023-02-14T21:59:06.169Z,95216.22
2023-02-14T22:04:10.657Z,95206.56
2023-02-14T22:09:14.362Z,95204.44
2023-02-14T22:14:16.487Z,95203.63
2023-02-14T22:19:18.477Z,95206.28
2023-02-14T22:24:20.619Z,95201.56
2023-02-14T22:29:22.747Z,95211.44
2023-02-14T22:34:25.119Z,95191.34
2023-02-14T22:39:26.966Z,95203.00
2023-02-14T22:44:29.267Z,95204.78
2023-02-14T22:49:31.362Z,95208.25
2023-02-14T22:54:33.415Z,95218.88
2023-02-14T22:59:35.361Z,95219.97
2023-02-14T23:04:37.395Z,95213.31
2023-02-14T23:09:39.447Z,95208.25
2023-02-14T23:14:59.998Z,95195.31
2023-02-14T23:20:20.578Z,95207.97
2023-02-14T23:25:22.943Z,95196.75
2023-02-14T23:30:25.284Z,95183.00
2023-02-14T23:35:27.343Z,95192.47
2023-02-14T23:40:29.440Z,95197.78
2023-02-14T23:45:38.794Z,95188.44
2023-02-14T23:50:40.852Z,95183.16
2023-02-14T23:55:43.054Z,95190.81
